Warnerville, NY (12187)

10:54 PM EST on January 19, 2017 (GMT -0500)
valley | | Change Station

Elev 764 ft 42.58 °N, 74.39 °W | Updated 19 seconds ago

Overcast
Overcast
34.7 °F
Feels Like 35 °F
N
0.0
Wind Variable Wind from WSW

Today
High -- | Low -- °F
--% Chance of Precip.
Yesterday
High -- | Low -- °F
Precip. -- in
Pressure 30.04 in
Visibility 10.0 miles
Clouds Overcast 3200 ft
Windchill 35 °F
Dew Point 33 °F
Humidity 92%
Rainfall 0.02 in
Snow Depth Not available.
7:22 AM 4:55 PM
Waning Gibbous, 48% visible
METAR KALB 200351Z 00000KT 10SM OVC032 02/M01 A3003 RMK AO2 SLP173 BINOVC T00221006
Pressure 30.04 in
Visibility 10.0 miles
Clouds Overcast 3200 ft
Windchill 35 °F
Dew Point 33 °F
Humidity 92%
Rainfall 0.02 in
Snow Depth Not available.
7:22 AM 4:55 PM
Waning Gibbous, 48% visible
METAR KALB 200351Z 00000KT 10SM OVC032 02/M01 A3003 RMK AO2 SLP173 BINOVC T00221006

Get Your Daily Forecast Email!

Thanks for signing up!

Be on the lookout for a verification email in your inbox.

You'll start receiving the daily forecast at 8 AM.

×

10-Day Weather Forecast

Almanac

Astronomy

Jan. 19, 2017 Rise Set
Actual Time
Civil Twilight
Nautical Twilight
Astronomical Twilight
Moon
Length of Visible Light
Length of Day
Tomorrow will be .
, % of the Moon is Illuminated

Today's Extremes

State Highs State Lows

Community

WunderPhotos

Upload Photos

1,962,540 photos uploaded!

WunderBlog® & News

Nearby

Air Quality

  Air Quality AQ Index Pollutant
Not available.

Snow Depth

Station Depth Elevation

Earthquake Activity

City Distance Mag. Time & Date
Minimum magnitude displayed is 2.5.

Coastal Water Temperatures

Place Temperature

Stations

Nearby Weather Stations

Station Location Temp. Windchill Dew Point Humidity Wind Precip. Elev Updated Type
                   

Watches & Warnings

There are currently no watches in effect.